createdAt,value
2022-09-15T00:00:51.178Z,1.35
2022-09-15T00:03:24.567Z,1.33
2022-09-15T00:05:57.373Z,1.63
2022-09-15T00:08:30.768Z,1.15
2022-09-15T00:11:10.639Z,1.58
2022-09-15T00:13:44.494Z,1.45
2022-09-15T00:16:18.833Z,1.60
2022-09-15T00:18:51.932Z,2.00
2022-09-15T00:21:27.992Z,2.30
2022-09-15T00:24:02.119Z,1.70
2022-09-15T00:26:35.923Z,1.58
2022-09-15T00:29:08.709Z,1.90
2022-09-15T00:31:41.439Z,2.10
2022-09-15T00:34:14.407Z,2.25
2022-09-15T00:36:47.112Z,1.88
2022-09-15T00:39:20.516Z,1.88
2022-09-15T00:41:53.360Z,2.50
2022-09-15T00:44:46.703Z,1.88
2022-09-15T00:47:23.530Z,2.00
2022-09-15T00:50:05.591Z,2.25
2022-09-15T00:52:47.533Z,2.55
2022-09-15T00:55:28.911Z,2.13
2022-09-15T00:58:08.723Z,2.28
2022-09-15T01:00:47.753Z,2.70
2022-09-15T01:03:20.874Z,2.72
2022-09-15T01:05:59.204Z,2.15
2022-09-15T01:08:36.556Z,2.60
2022-09-15T01:11:25.611Z,3.55
2022-09-15T01:13:58.601Z,2.90
2022-09-15T01:16:36.090Z,2.80
2022-09-15T01:19:27.625Z,2.83
2022-09-15T01:22:25.512Z,2.90
2022-09-15T01:25:08.966Z,2.90
2022-09-15T01:28:03.253Z,3.65
2022-09-15T01:30:39.506Z,2.42
2022-09-15T01:33:37.312Z,3.47
2022-09-15T01:36:23.135Z,2.60
2022-09-15T01:39:03.543Z,2.58
2022-09-15T01:41:46.574Z,3.00
2022-09-15T01:44:29.816Z,2.95
2022-09-15T01:47:09.369Z,2.70
2022-09-15T01:49:44.598Z,3.03
2022-09-15T01:52:19.514Z,4.32
2022-09-15T01:55:02.136Z,3.60
2022-09-15T01:57:34.881Z,3.65
2022-09-15T02:00:08.574Z,3.42
2022-09-15T02:02:45.966Z,3.88
2022-09-15T02:05:32.141Z,3.90
2022-09-15T02:08:30.509Z,2.95
2022-09-15T02:11:19.146Z,3.50
2022-09-15T02:14:24.087Z,2.92
2022-09-15T02:16:57.788Z,2.65
2022-09-15T02:19:45.519Z,2.70
2022-09-15T02:22:27.085Z,2.35
2022-09-15T02:25:04.984Z,2.50
2022-09-15T02:27:44.190Z,2.17
2022-09-15T02:30:20.208Z,2.10
2022-09-15T02:32:58.079Z,1.60
2022-09-15T02:35:35.175Z,1.58
2022-09-15T02:38:11.227Z,1.38
2022-09-15T02:40:45.907Z,1.20
2022-09-15T02:43:19.613Z,1.13
2022-09-15T02:45:55.192Z,1.00
2022-09-15T02:48:29.037Z,0.80
2022-09-15T02:51:03.080Z,1.00
2022-09-15T02:53:37.283Z,0.80
2022-09-15T02:56:10.814Z,0.80
2022-09-15T02:58:45.200Z,0.73
2022-09-15T03:01:19.425Z,0.63
2022-09-15T03:03:53.206Z,0.73
2022-09-15T03:06:34.690Z,0.50
2022-09-15T03:09:08.691Z,0.60
2022-09-15T03:11:42.750Z,0.43
2022-09-15T03:14:16.557Z,0.50
2022-09-15T03:16:50.262Z,0.50
2022-09-15T03:19:23.642Z,0.60
2022-09-15T03:21:57.713Z,0.75
2022-09-15T03:24:31.924Z,0.68
2022-09-15T03:27:06.266Z,0.93
2022-09-15T03:29:40.719Z,0.70
2022-09-15T03:32:14.680Z,0.60
2022-09-15T03:34:48.855Z,0.50
2022-09-15T03:37:22.733Z,0.75
2022-09-15T03:39:56.704Z,0.60
2022-09-15T03:42:29.970Z,0.73
2022-09-15T03:45:03.620Z,0.50
2022-09-15T03:47:36.348Z,0.80
2022-09-15T03:50:09.312Z,0.68
2022-09-15T03:52:42.045Z,0.90
2022-09-15T03:55:14.855Z,0.77
2022-09-15T03:57:47.614Z,0.90
2022-09-15T04:00:20.445Z,0.90
2022-09-15T04:02:53.203Z,0.80
2022-09-15T04:05:26.015Z,1.95
2022-09-15T04:07:58.774Z,1.00
2022-09-15T04:10:31.768Z,1.25
2022-09-15T04:13:04.477Z,1.35
2022-09-15T04:15:37.297Z,1.30
2022-09-15T04:18:10.657Z,1.50
2022-09-15T04:20:43.400Z,2.22
2022-09-15T04:23:16.685Z,1.77
2022-09-15T04:26:01.017Z,2.22
2022-09-15T04:28:36.812Z,1.75
2022-09-15T04:31:12.671Z,2.30
2022-09-15T04:33:46.574Z,2.30
2022-09-15T04:36:22.503Z,2.78
2022-09-15T04:38:56.267Z,3.10
2022-09-15T04:41:29.170Z,2.70
2022-09-15T04:44:02.612Z,3.10
2022-09-15T04:46:35.372Z,3.53
2022-09-15T04:49:08.288Z,3.28
2022-09-15T04:51:41.905Z,3.42
2022-09-15T04:54:16.148Z,4.25
2022-09-15T04:56:50.010Z,3.95
2022-09-15T04:59:27.022Z,3.53
2022-09-15T05:02:00.435Z,4.05
2022-09-15T05:04:33.455Z,4.18
2022-09-15T05:07:06.314Z,3.95
2022-09-15T05:09:39.115Z,5.47
2022-09-15T05:12:11.850Z,5.05
2022-09-15T05:14:44.608Z,4.88
2022-09-15T05:17:17.387Z,4.85
2022-09-15T05:19:50.094Z,5.28
2022-09-15T05:22:22.898Z,4.68
2022-09-15T05:24:55.759Z,4.63
2022-09-15T05:27:32.748Z,6.03
2022-09-15T05:30:36.066Z,5.80
2022-09-15T05:33:01.582Z,5.20
2022-09-15T05:35:34.646Z,6.60
2022-09-15T05:38:08.218Z,6.07
2022-09-15T05:40:41.093Z,6.05
2022-09-15T05:43:14.534Z,5.60
2022-09-15T05:45:56.825Z,6.30
2022-09-15T05:48:29.739Z,6.05
2022-09-15T05:51:03.809Z,5.78
2022-09-15T05:53:37.701Z,5.65
2022-09-15T05:56:13.104Z,5.30
2022-09-15T05:58:48.015Z,6.45
2022-09-15T06:01:23.710Z,6.25
2022-09-15T06:03:57.762Z,5.40
2022-09-15T06:06:32.148Z,5.85
2022-09-15T06:09:06.633Z,6.25
2022-09-15T06:11:39.562Z,5.88
2022-09-15T06:14:13.678Z,6.28
2022-09-15T06:16:47.990Z,6.40
2022-09-15T06:19:21.146Z,7.07
2022-09-15T06:21:54.686Z,6.72
2022-09-15T06:24:28.324Z,6.85
2022-09-15T06:27:01.410Z,6.57
2022-09-15T06:29:34.568Z,6.70
2022-09-15T06:32:07.450Z,6.78
2022-09-15T06:34:40.400Z,8.07
2022-09-15T06:37:13.538Z,7.30
2022-09-15T06:39:46.304Z,6.90
2022-09-15T06:42:19.042Z,6.95
2022-09-15T06:44:53.433Z,7.95
2022-09-15T06:47:26.281Z,6.55
2022-09-15T06:49:59.613Z,6.93
2022-09-15T06:52:32.272Z,8.60
2022-09-15T06:55:05.934Z,9.57
2022-09-15T06:57:39.000Z,7.00
2022-09-15T07:00:12.579Z,7.82
2022-09-15T07:02:49.391Z,6.88
2022-09-15T07:05:23.648Z,7.43
2022-09-15T07:07:57.024Z,7.38
2022-09-15T07:10:30.280Z,7.47
2022-09-15T07:13:03.209Z,8.07
2022-09-15T07:15:36.098Z,8.00
2022-09-15T07:18:08.859Z,7.38
2022-09-15T07:20:41.871Z,8.18
2022-09-15T07:23:15.245Z,8.27
2022-09-15T07:25:47.967Z,7.88
2022-09-15T07:28:20.915Z,9.23
2022-09-15T07:30:53.655Z,8.93
2022-09-15T07:33:26.439Z,7.82
2022-09-15T07:36:01.263Z,9.00
2022-09-15T07:38:36.378Z,8.65
2022-09-15T07:41:15.329Z,8.63
2022-09-15T07:43:52.925Z,7.95
2022-09-15T07:46:27.761Z,9.38
2022-09-15T07:49:04.747Z,8.88
2022-09-15T07:51:39.751Z,8.35
2022-09-15T07:54:13.032Z,7.97
2022-09-15T07:56:46.340Z,8.38
2022-09-15T07:59:20.916Z,8.00
2022-09-15T08:01:54.254Z,6.68
2022-09-15T08:04:27.267Z,7.80
2022-09-15T08:07:00.131Z,6.85
2022-09-15T08:09:32.884Z,7.88
2022-09-15T08:12:06.743Z,9.25
2022-09-15T08:14:39.902Z,7.83
2022-09-15T08:17:12.866Z,7.55
2022-09-15T08:19:46.839Z,8.13
2022-09-15T08:22:19.646Z,6.88
2022-09-15T08:24:52.938Z,7.00
2022-09-15T08:27:26.123Z,5.93
2022-09-15T08:29:58.990Z,6.50
2022-09-15T08:32:31.716Z,6.25
2022-09-15T08:35:05.125Z,5.43
2022-09-15T08:37:38.056Z,5.43
2022-09-15T08:40:26.078Z,5.60
2022-09-15T08:46:20.584Z,4.53
2022-09-15T08:49:13.086Z,4.32
2022-09-15T08:51:49.812Z,4.47
2022-09-15T08:54:26.411Z,4.88
2022-09-15T08:57:01.156Z,4.90
2022-09-15T08:59:37.231Z,4.57
2022-09-15T09:02:13.048Z,3.83
2022-09-15T09:06:05.506Z,3.80
2022-09-15T09:09:02.500Z,2.70
2022-09-15T09:11:58.630Z,2.58
2022-09-15T09:15:04.251Z,2.60
2022-09-15T09:18:24.423Z,2.55
2022-09-15T09:21:17.919Z,2.20
2022-09-15T09:24:01.045Z,2.53
2022-09-15T09:26:36.392Z,3.00
2022-09-15T09:29:19.681Z,2.78
2022-09-15T09:31:55.127Z,2.80
2022-09-15T09:34:38.041Z,2.42
2022-09-15T09:37:14.122Z,2.50
2022-09-15T09:39:47.996Z,2.38
2022-09-15T09:42:30.302Z,2.78
2022-09-15T09:45:04.932Z,2.30
2022-09-15T09:47:40.082Z,2.30
2022-09-15T09:50:39.091Z,2.22
2022-09-15T09:53:29.022Z,2.40
2022-09-15T09:56:37.692Z,2.50
2022-09-15T09:59:35.496Z,3.10
2022-09-15T10:02:13.989Z,2.80
2022-09-15T10:05:05.602Z,2.80
2022-09-15T10:07:47.079Z,2.63
2022-09-15T10:10:28.718Z,2.33
2022-09-15T10:13:02.889Z,2.20
2022-09-15T10:15:36.753Z,2.30
2022-09-15T10:18:34.195Z,1.98
2022-09-15T10:21:09.086Z,2.20
2022-09-15T10:23:43.629Z,2.05
2022-09-15T10:26:16.265Z,1.90
2022-09-15T10:29:12.499Z,2.13
2022-09-15T10:31:46.291Z,1.88
2022-09-15T10:34:26.665Z,1.70
2022-09-15T10:37:12.820Z,1.75
2022-09-15T10:39:48.426Z,1.40
2022-09-15T10:42:42.371Z,1.90
2022-09-15T10:45:24.324Z,1.70
2022-09-15T10:48:21.883Z,1.80
2022-09-15T10:51:23.794Z,1.65
2022-09-15T10:54:19.691Z,1.80
2022-09-15T10:56:58.700Z,1.70
2022-09-15T10:59:43.472Z,1.50
2022-09-15T11:02:31.972Z,1.70
2022-09-15T11:05:27.854Z,1.67
2022-09-15T11:08:17.548Z,1.80
2022-09-15T11:11:02.329Z,1.60
2022-09-15T11:14:10.261Z,1.50
2022-09-15T11:16:50.163Z,1.52
2022-09-15T11:19:44.735Z,1.63
2022-09-15T11:22:35.377Z,1.90
2022-09-15T11:25:17.169Z,1.50
2022-09-15T11:28:05.464Z,2.00
2022-09-15T11:31:01.036Z,1.55
2022-09-15T11:33:46.225Z,2.13
2022-09-15T11:36:43.110Z,1.50
2022-09-15T11:39:35.112Z,1.60
2022-09-15T11:42:28.945Z,1.75
2022-09-15T11:45:03.186Z,1.88
2022-09-15T11:47:44.399Z,3.80
2022-09-15T11:50:19.976Z,3.63
2022-09-15T11:53:16.642Z,1.80
2022-09-15T11:55:55.617Z,1.58
2022-09-15T11:59:04.513Z,1.50
2022-09-15T12:01:48.513Z,1.50
2022-09-15T12:04:31.917Z,1.52
2022-09-15T12:07:23.145Z,1.60
2022-09-15T12:10:03.879Z,1.40
2022-09-15T12:12:38.707Z,1.30
2022-09-15T12:15:17.589Z,1.40
2022-09-15T12:18:34.442Z,1.50
2022-09-15T12:21:36.769Z,1.20
2022-09-15T12:24:39.320Z,1.38
2022-09-15T12:27:16.909Z,1.10
2022-09-15T12:29:50.837Z,1.25
2022-09-15T12:32:28.812Z,1.27
2022-09-15T12:35:17.518Z,1.23
2022-09-15T12:37:57.774Z,1.35
2022-09-15T12:40:33.044Z,1.10
2022-09-15T12:43:12.712Z,1.38
2022-09-15T12:46:01.141Z,1.20
2022-09-15T12:48:36.537Z,1.58
2022-09-15T12:51:10.837Z,1.10
2022-09-15T12:53:52.400Z,1.30
2022-09-15T12:56:28.367Z,1.35
2022-09-15T12:59:06.950Z,1.20
2022-09-15T13:01:48.743Z,1.10
2022-09-15T13:04:41.313Z,1.27
2022-09-15T13:07:17.206Z,1.00
2022-09-15T13:10:08.195Z,1.17
2022-09-15T13:12:49.493Z,1.30
2022-09-15T13:15:25.162Z,1.08
2022-09-15T13:17:58.342Z,1.17
2022-09-15T13:20:36.613Z,1.00
2022-09-15T13:23:14.101Z,1.20
2022-09-15T13:25:48.102Z,1.10
2022-09-15T13:28:21.155Z,1.00
2022-09-15T13:31:08.955Z,1.00
2022-09-15T13:40:47.800Z,2.00
2022-09-15T13:43:40.626Z,1.25
2022-09-15T13:46:23.007Z,1.20
2022-09-15T13:49:01.303Z,1.23
2022-09-15T13:51:35.205Z,1.13
2022-09-15T13:54:17.105Z,1.10
2022-09-15T13:56:53.088Z,1.13
2022-09-15T13:59:30.436Z,1.35
2022-09-15T14:02:08.934Z,3.03
2022-09-15T14:04:41.833Z,1.73
2022-09-15T14:07:23.326Z,1.70
2022-09-15T14:09:56.098Z,1.63
2022-09-15T14:12:28.890Z,1.20
2022-09-15T14:15:06.345Z,1.40
2022-09-15T14:17:45.229Z,1.38
2022-09-15T14:20:27.411Z,1.08
2022-09-15T14:23:00.556Z,1.42
2022-09-15T14:25:33.887Z,1.40
2022-09-15T14:28:07.610Z,2.03
2022-09-15T14:30:40.486Z,1.58
2022-09-15T14:33:16.835Z,1.90
2022-09-15T14:35:49.725Z,1.35
2022-09-15T14:38:24.829Z,1.73
2022-09-15T14:40:59.412Z,1.63
2022-09-15T14:43:35.557Z,1.30
2022-09-15T14:46:12.634Z,1.55
2022-09-15T14:48:45.444Z,1.40
2022-09-15T14:51:25.194Z,1.30
2022-09-15T14:54:00.381Z,1.65
2022-09-15T14:56:36.125Z,1.30
2022-09-15T14:59:15.271Z,1.27
2022-09-15T15:01:59.975Z,1.13
2022-09-15T15:04:43.279Z,1.40
2022-09-15T15:07:29.101Z,1.48
2022-09-15T15:10:05.985Z,1.30
2022-09-15T15:12:49.081Z,1.20
2022-09-15T15:15:22.698Z,1.50
2022-09-15T15:17:58.758Z,1.35
2022-09-15T15:20:31.705Z,1.20
2022-09-15T15:23:13.718Z,1.48
2022-09-15T15:25:49.752Z,1.27
2022-09-15T15:28:36.863Z,1.42
2022-09-15T15:31:14.742Z,1.47
2022-09-15T15:33:56.582Z,1.45
2022-09-15T15:36:29.888Z,1.35
2022-09-15T15:39:05.602Z,1.58
2022-09-15T15:41:42.568Z,1.55
2022-09-15T15:44:15.291Z,1.48
2022-09-15T15:47:01.612Z,1.73
2022-09-15T15:49:34.525Z,1.48
2022-09-15T15:52:07.586Z,1.45
2022-09-15T15:54:40.583Z,1.42
2022-09-15T15:57:25.502Z,1.48
2022-09-15T16:00:00.404Z,1.55
2022-09-15T16:02:33.310Z,1.63
2022-09-15T16:05:06.344Z,1.63
2022-09-15T16:07:40.145Z,1.55
2022-09-15T16:10:22.596Z,1.80
2022-09-15T16:12:56.044Z,1.58
2022-09-15T16:15:28.818Z,1.50
2022-09-15T16:18:01.741Z,1.55
2022-09-15T16:20:34.956Z,2.08
2022-09-15T16:23:12.685Z,2.00
2022-09-15T16:25:57.879Z,1.80
2022-09-15T16:28:30.773Z,1.70
2022-09-15T16:31:04.383Z,1.65
2022-09-15T16:33:38.217Z,1.80
2022-09-15T16:36:16.469Z,1.70
2022-09-15T16:38:49.808Z,1.48
2022-09-15T16:41:25.373Z,1.50
2022-09-15T16:43:58.313Z,1.83
2022-09-15T16:46:31.063Z,1.80
2022-09-15T16:49:03.744Z,1.80
2022-09-15T16:51:36.457Z,1.90
2022-09-15T16:54:20.322Z,1.73
2022-09-15T16:56:53.032Z,2.00
2022-09-15T16:59:25.782Z,2.10
2022-09-15T17:01:59.104Z,1.90
2022-09-15T17:04:32.312Z,1.90
2022-09-15T17:07:05.112Z,1.95
2022-09-15T17:09:38.059Z,2.10
2022-09-15T17:14:49.675Z,2.10
2022-09-15T17:17:26.223Z,1.90
2022-09-15T17:19:59.126Z,2.20
2022-09-15T17:22:32.441Z,1.90
2022-09-15T17:25:29.907Z,2.17
2022-09-15T17:28:02.727Z,2.33
2022-09-15T17:30:35.792Z,2.13
2022-09-15T17:33:13.462Z,2.10
2022-09-15T17:35:47.653Z,1.98
2022-09-15T17:38:21.617Z,2.22
2022-09-15T17:40:57.578Z,2.40
2022-09-15T17:43:33.389Z,2.25
2022-09-15T17:46:07.824Z,2.40
2022-09-15T17:48:40.899Z,2.40
2022-09-15T17:51:17.292Z,1.85
2022-09-15T17:53:50.101Z,2.28
2022-09-15T17:56:22.965Z,2.30
2022-09-15T17:58:55.662Z,2.13
2022-09-15T18:01:28.661Z,2.80
2022-09-15T18:04:02.459Z,2.40
2022-09-15T18:06:36.845Z,2.22
2022-09-15T18:09:09.660Z,2.60
2022-09-15T18:11:42.429Z,2.38
2022-09-15T18:14:15.277Z,2.50
2022-09-15T18:16:48.330Z,2.55
2022-09-15T18:19:21.171Z,2.45
2022-09-15T18:21:54.258Z,2.85
2022-09-15T18:24:28.303Z,2.45
2022-09-15T18:27:01.168Z,2.13
2022-09-15T18:29:33.849Z,2.20
2022-09-15T18:32:06.628Z,4.30
2022-09-15T18:34:39.412Z,2.13
2022-09-15T18:37:12.127Z,1.75
2022-09-15T18:39:44.899Z,2.05
2022-09-15T18:42:17.543Z,1.98
2022-09-15T18:44:50.264Z,1.73
2022-09-15T18:47:22.926Z,2.08
2022-09-15T18:49:55.706Z,2.03
2022-09-15T18:52:28.761Z,2.00
2022-09-15T18:55:01.960Z,2.05
2022-09-15T18:57:39.362Z,1.80
2022-09-15T19:00:17.598Z,1.70
2022-09-15T19:02:57.024Z,1.95
2022-09-15T19:05:30.562Z,1.90
2022-09-15T19:08:03.941Z,2.28
2022-09-15T19:10:39.683Z,2.22
2022-09-15T19:13:13.902Z,1.92
2022-09-15T19:15:49.103Z,2.15
2022-09-15T19:18:23.249Z,2.30
2022-09-15T19:21:04.522Z,2.20
2022-09-15T19:23:37.927Z,1.90
2022-09-15T19:26:16.900Z,2.00
2022-09-15T19:28:50.751Z,2.45
2022-09-15T19:31:27.374Z,2.20
2022-09-15T19:34:00.098Z,2.28
2022-09-15T19:36:32.926Z,2.10
2022-09-15T19:39:05.817Z,1.80
2022-09-15T19:41:38.934Z,1.88
2022-09-15T19:44:11.681Z,2.08
2022-09-15T19:46:44.736Z,2.05
2022-09-15T19:49:17.412Z,1.98
2022-09-15T19:51:55.350Z,2.15
2022-09-15T19:54:30.048Z,1.90
2022-09-15T19:57:03.679Z,2.05
2022-09-15T19:59:36.764Z,1.90
2022-09-15T20:02:10.718Z,2.05
2022-09-15T20:04:44.101Z,2.03
2022-09-15T20:07:16.757Z,1.98
2022-09-15T20:09:52.762Z,2.10
2022-09-15T20:12:25.833Z,2.08
2022-09-15T20:14:58.888Z,2.20
2022-09-15T20:17:31.654Z,1.92
2022-09-15T20:20:04.738Z,2.40
2022-09-15T20:22:37.479Z,2.25
2022-09-15T20:25:10.348Z,2.13
2022-09-15T20:27:43.993Z,2.30
2022-09-15T20:30:16.725Z,2.47
2022-09-15T20:32:49.556Z,2.50
2022-09-15T20:35:22.208Z,2.35
2022-09-15T20:37:54.991Z,2.03
2022-09-15T20:40:27.739Z,2.00
2022-09-15T20:43:00.591Z,2.33
2022-09-15T20:45:37.129Z,2.08
2022-09-15T20:48:10.186Z,2.33
2022-09-15T20:50:42.873Z,2.40
2022-09-15T20:53:15.686Z,2.20
2022-09-15T20:55:49.717Z,2.05
2022-09-15T20:58:22.822Z,2.67
2022-09-15T21:01:09.396Z,2.35
2022-09-15T21:03:44.263Z,1.90
2022-09-15T21:06:22.272Z,2.13
2022-09-15T21:08:56.528Z,2.03
2022-09-15T21:11:29.974Z,2.45
2022-09-15T21:14:03.256Z,2.40
2022-09-15T21:16:36.023Z,2.17
2022-09-15T21:19:09.525Z,1.97
2022-09-15T21:21:42.317Z,2.00
2022-09-15T21:24:15.551Z,2.10
2022-09-15T21:27:06.755Z,1.80
2022-09-15T21:29:39.423Z,1.77
2022-09-15T21:32:12.212Z,2.07
2022-09-15T21:34:45.239Z,1.80
2022-09-15T21:37:18.472Z,1.70
2022-09-15T21:39:51.139Z,1.93
2022-09-15T21:42:25.056Z,2.00
2022-09-15T21:44:58.043Z,1.60
2022-09-15T21:47:31.836Z,1.87
2022-09-15T21:50:05.594Z,1.97
2022-09-15T21:52:38.469Z,2.00
2022-09-15T21:55:11.154Z,2.10
2022-09-15T21:57:43.926Z,2.37
2022-09-15T22:00:17.068Z,2.17
2022-09-15T22:02:51.775Z,2.33
2022-09-15T22:05:24.501Z,2.03
2022-09-15T22:08:00.472Z,1.93
2022-09-15T22:10:46.051Z,2.30
2022-09-15T22:13:18.787Z,2.40
2022-09-15T22:15:51.681Z,2.00
2022-09-15T22:18:24.394Z,2.23
2022-09-15T22:21:07.711Z,2.37
2022-09-15T22:23:41.165Z,2.27
2022-09-15T22:26:21.825Z,2.03
2022-09-15T22:28:55.908Z,2.50
2022-09-15T22:31:29.834Z,2.10
2022-09-15T22:34:02.803Z,3.03
2022-09-15T22:36:35.477Z,3.00
2022-09-15T22:39:08.231Z,2.73
2022-09-15T22:41:40.948Z,2.70
2022-09-15T22:44:19.226Z,2.43
2022-09-15T22:46:52.160Z,2.43
2022-09-15T22:49:27.281Z,2.70
2022-09-15T22:52:00.091Z,2.47
2022-09-15T22:54:32.850Z,2.50
2022-09-15T22:57:05.643Z,2.23
2022-09-15T22:59:38.378Z,3.10
2022-09-15T23:02:11.307Z,2.50
2022-09-15T23:04:44.368Z,2.17
2022-09-15T23:07:17.158Z,2.60
2022-09-15T23:09:49.804Z,2.30
2022-09-15T23:12:22.627Z,2.00
2022-09-15T23:14:55.339Z,2.10
2022-09-15T23:17:28.109Z,2.30
2022-09-15T23:20:01.680Z,2.50
2022-09-15T23:22:34.445Z,2.00
2022-09-15T23:25:07.468Z,2.10
2022-09-15T23:27:40.227Z,2.57
2022-09-15T23:30:13.161Z,2.20
2022-09-15T23:32:45.932Z,2.03
2022-09-15T23:35:18.722Z,2.10
2022-09-15T23:37:51.366Z,2.20
2022-09-15T23:40:26.921Z,2.10
2022-09-15T23:42:59.723Z,1.90
2022-09-15T23:45:32.429Z,2.67
2022-09-15T23:48:06.749Z,2.30
2022-09-15T23:50:40.623Z,2.40
2022-09-15T23:53:13.570Z,2.20
2022-09-15T23:55:46.724Z,2.20
2022-09-15T23:58:19.640Z,1.88
